Time;durP1;ratioP1;P1;durP2;ratioP2;P2;SDS_P1;SDS_P2;PMS_P1;PMS_P2;Temp;Humidity;BMP_temperature;BMP_pressure;BME280_temperature;BME280_humidity;BME280_pressure;Samples;Min_cycle;Max_cycle;Signal;HPM_P1;HPM_P2
2023/10/07 01:43:59;;;;;;;1.70;1.33;;;;;;;;;;10319623;23;20038;-77
2023/10/07 01:49:06;;;;;;;3.08;1.88;;;;;;;;;;10320818;28;20061;-78
2023/10/07 01:54:11;;;;;;;4.05;2.05;;;;;;;;;;10322814;28;20138;-77
2023/10/07 01:59:18;;;;;;;4.40;2.03;;;;;;;;;;10309970;28;20042;-77
2023/10/07 02:04:26;;;;;;;2.55;1.70;;;;;;;;;;10303893;28;20046;-77
2023/10/07 02:09:35;;;;;;;2.67;1.70;;;;;;;;;;10317453;28;20046;-78
2023/10/07 02:14:40;;;;;;;2.72;2.03;;;;;;;;;;10322659;28;20053;-78
2023/10/07 02:19:43;;;;;;;3.90;1.88;;;;;;;;;;10308376;28;20125;-79
2023/10/07 02:24:52;;;;;;;3.03;1.88;;;;;;;;;;10317703;28;20047;-79
2023/10/07 02:29:57;;;;;;;4.65;2.33;;;;;;;;;;10305758;28;20094;-78
2023/10/07 02:35:01;;;;;;;4.75;2.03;;;;;;;;;;10317896;28;20137;-78
2023/10/07 02:40:19;;;;;;;4.57;2.50;;;;;;;;;;10307974;28;20049;-78
2023/10/07 02:45:28;;;;;;;4.38;2.85;;;;;;;;;;10311119;28;20050;-78
2023/10/07 02:50:32;;;;;;;5.05;3.15;;;;;;;;;;10310062;28;20050;-78
2023/10/07 02:55:46;;;;;;;4.55;2.95;;;;;;;;;;10318087;28;20496;-77
2023/10/07 03:00:51;;;;;;;4.22;2.42;;;;;;;;;;10304420;28;20077;-77
2023/10/07 03:05:58;;;;;;;4.93;2.90;;;;;;;;;;10306910;28;20051;-78
2023/10/07 03:11:09;;;;;;;4.68;3.05;;;;;;;;;;10318349;28;20138;-78
2023/10/07 03:16:28;;;;;;;3.80;2.70;;;;;;;;;;10302424;28;20049;-77
2023/10/07 03:21:54;;;;;;;4.97;3.22;;;;;;;;;;10322213;28;20058;-78
2023/10/07 03:27:05;;;;;;;3.20;2.45;;;;;;;;;;10319122;28;20503;-77
2023/10/07 03:32:13;;;;;;;4.50;2.83;;;;;;;;;;10318545;28;20703;-78
2023/10/07 03:37:17;;;;;;;3.58;2.00;;;;;;;;;;10314402;28;20070;-77
2023/10/07 03:42:20;;;;;;;3.08;2.10;;;;;;;;;;10309814;28;20564;-78
2023/10/07 03:47:25;;;;;;;3.60;1.90;;;;;;;;;;10311235;28;20068;-78
2023/10/07 03:52:28;;;;;;;4.47;1.90;;;;;;;;;;10320840;28;20498;-78
2023/10/07 03:57:33;;;;;;;4.65;2.42;;;;;;;;;;10324632;28;20522;-78
2023/10/07 04:02:41;;;;;;;7.63;3.65;;;;;;;;;;10313259;28;20054;-77
2023/10/07 04:07:45;;;;;;;7.78;4.38;;;;;;;;;;10304683;28;20050;-78
2023/10/07 04:12:50;;;;;;;5.80;3.53;;;;;;;;;;10330736;28;20068;-78
2023/10/07 04:17:54;;;;;;;4.78;3.00;;;;;;;;;;10312437;28;20419;-77
2023/10/07 04:23:00;;;;;;;4.50;2.70;;;;;;;;;;10318620;28;20137;-78
2023/10/07 04:28:06;;;;;;;3.67;2.10;;;;;;;;;;10308656;28;20086;-78
2023/10/07 04:33:11;;;;;;;3.10;2.05;;;;;;;;;;10315876;28;20385;-78
2023/10/07 04:38:39;;;;;;;2.58;1.65;;;;;;;;;;10321717;28;20137;-77
2023/10/07 04:43:49;;;;;;;3.97;1.85;;;;;;;;;;10308264;28;20464;-78
2023/10/07 04:48:56;;;;;;;3.30;1.67;;;;;;;;;;10321192;28;20073;-78
2023/10/07 04:53:59;;;;;;;;;;;;;;;;;;10326310;28;20046;-78
2023/10/07 04:59:05;;;;;;;1.98;1.27;;;;;;;;;;10318259;28;19922;-78
2023/10/07 05:04:11;;;;;;;4.75;1.52;;;;;;;;;;10309507;28;20117;-78
2023/10/07 05:09:18;;;;;;;3.05;1.60;;;;;;;;;;10314333;28;20065;-78
2023/10/07 05:14:24;;;;;;;3.70;1.55;;;;;;;;;;10321681;28;20047;-78
2023/10/07 05:19:30;;;;;;;2.13;1.43;;;;;;;;;;10305378;28;20046;-78
2023/10/07 05:24:33;;;;;;;2.42;1.40;;;;;;;;;;10306428;28;20389;-77
2023/10/07 05:29:40;;;;;;;2.63;1.40;;;;;;;;;;10299665;28;20735;-77
2023/10/07 05:34:46;;;;;;;4.40;1.52;;;;;;;;;;10307245;28;20062;-78
2023/10/07 05:39:51;;;;;;;3.35;1.40;;;;;;;;;;10308936;28;20077;-78
2023/10/07 05:44:55;;;;;;;4.15;1.73;;;;;;;;;;10299652;28;20130;-78
2023/10/07 05:50:00;;;;;;;3.33;1.55;;;;;;;;;;10306354;28;20137;-78
2023/10/07 05:55:06;;;;;;;2.42;1.70;;;;;;;;;;10301343;28;20129;-78
2023/10/07 06:00:10;;;;;;;2.53;1.60;;;;;;;;;;10323393;28;20543;-78
2023/10/07 06:05:15;;;;;;;2.65;1.40;;;;;;;;;;10324468;28;20157;-78
2023/10/07 06:10:18;;;;;;;2.58;1.60;;;;;;;;;;10296058;28;20066;-77
2023/10/07 06:15:23;;;;;;;2.60;1.35;;;;;;;;;;10328245;28;20046;-78
2023/10/07 06:20:28;;;;;;;3.50;2.10;;;;;;;;;;10321663;28;20161;-78
2023/10/07 06:25:36;;;;;;;4.50;1.65;;;;;;;;;;10317567;28;20122;-78
2023/10/07 06:30:42;;;;;;;4.18;2.30;;;;;;;;;;10312036;28;20115;-78
2023/10/07 06:35:51;;;;;;;3.65;1.83;;;;;;;;;;10301670;28;20055;-78
2023/10/07 06:40:56;;;;;;;2.95;1.85;;;;;;;;;;10306082;28;20050;-78
2023/10/07 06:46:01;;;;;;;3.33;1.70;;;;;;;;;;10306170;28;20047;-78
2023/10/07 06:51:10;;;;;;;3.13;1.58;;;;;;;;;;10303770;28;20486;-77
2023/10/07 06:56:20;;;;;;;4.28;1.80;;;;;;;;;;10306952;28;20046;-78
2023/10/07 07:01:35;;;;;;;1.55;1.08;;;;;;;;;;10300998;28;20485;-77
2023/10/07 07:06:43;;;;;;;2.95;1.58;;;;;;;;;;10308798;28;20061;-78
2023/10/07 07:11:47;;;;;;;2.53;1.70;;;;;;;;;;10319646;28;20058;-78
2023/10/07 07:16:50;;;;;;;4.15;1.88;;;;;;;;;;10301189;28;20046;-78
2023/10/07 07:21:57;;;;;;;4.38;1.95;;;;;;;;;;10306080;28;20130;-78
2023/10/07 07:27:02;;;;;;;2.58;1.30;;;;;;;;;;10308144;28;20566;-78
2023/10/07 07:32:17;;;;;;;2.27;1.43;;;;;;;;;;10320275;28;20129;-78
2023/10/07 07:37:22;;;;;;;6.90;3.85;;;;;;;;;;10312042;28;20054;-77
2023/10/07 07:48:06;;;;;;;6.82;2.97;;;;;;;;;;10362266;23;20051;-87
2023/10/07 07:53:12;;;;;;;3.92;2.35;;;;;;;;;;10236915;28;20426;-87
2023/10/07 07:58:16;;;;;;;5.10;3.35;;;;;;;;;;10238482;28;20055;-88
2023/10/07 08:03:20;;;;;;;5.60;2.90;;;;;;;;;;10234416;28;20506;-87
2023/10/07 08:08:25;;;;;;;3.40;2.08;;;;;;;;;;10232282;28;20047;-86
2023/10/07 08:13:28;;;;;;;4.07;2.13;;;;;;;;;;10252959;28;20043;-87
2023/10/07 08:18:32;;;;;;;4.57;2.25;;;;;;;;;;10236869;28;20071;-87
2023/10/07 08:23:40;;;;;;;2.40;1.35;;;;;;;;;;10237092;28;20731;-87
2023/10/07 08:28:46;;;;;;;2.97;1.77;;;;;;;;;;10237990;28;20039;-87
2023/10/07 08:34:01;;;;;;;;;;;;;;;;;;10236312;28;20035;-88
2023/10/07 08:39:09;;;;;;;2.90;1.50;;;;;;;;;;10252378;28;19930;-87
2023/10/07 08:44:15;;;;;;;3.33;1.93;;;;;;;;;;10244516;28;20047;-86
2023/10/07 08:49:25;;;;;;;2.38;1.50;;;;;;;;;;10275147;28;20520;-87
2023/10/07 08:54:37;;;;;;;3.90;1.92;;;;;;;;;;10275918;28;20051;-87
2023/10/07 08:59:42;;;;;;;6.47;2.45;;;;;;;;;;10275099;28;20043;-87
2023/10/07 09:04:45;;;;;;;2.63;1.75;;;;;;;;;;10273492;28;20098;-86
2023/10/07 09:09:52;;;;;;;5.05;2.40;;;;;;;;;;10273620;28;20565;-86
2023/10/07 09:15:00;;;;;;;4.43;2.60;;;;;;;;;;10275977;28;20461;-87
2023/10/07 09:20:07;;;;;;;2.75;1.75;;;;;;;;;;10288947;28;20050;-87
2023/10/07 09:25:17;;;;;;;3.80;1.90;;;;;;;;;;10283261;28;20517;-87
2023/10/07 09:30:35;;;;;;;3.97;2.50;;;;;;;;;;10281670;28;20145;-87
2023/10/07 09:35:42;;;;;;;5.57;2.58;;;;;;;;;;10279992;28;20050;-87
2023/10/07 09:46:07;;;;;;;6.60;2.65;;;;;;;;;;10282184;28;20458;-87
2023/10/07 09:51:22;;;;;;;5.72;2.95;;;;;;;;;;10283258;28;20054;-87
2023/10/07 09:56:38;;;;;;;4.88;2.67;;;;;;;;;;10281052;28;20101;-86
2023/10/07 10:02:05;;;;;;;4.50;2.50;;;;;;;;;;10282961;28;20097;-86
2023/10/07 10:07:39;;;;;;;7.38;3.17;;;;;;;;;;10280344;28;20090;-85
2023/10/07 10:13:06;;;;;;;5.28;2.42;;;;;;;;;;10281717;28;20399;-86
2023/10/07 10:18:35;;;;;;;7.30;2.80;;;;;;;;;;10281334;28;20051;-86
2023/10/07 10:23:42;;;;;;;5.63;3.20;;;;;;;;;;10279135;28;20042;-86
2023/10/07 10:28:59;;;;;;;9.05;3.70;;;;;;;;;;10296674;28;20109;-86
2023/10/07 10:34:05;;;;;;;5.60;2.95;;;;;;;;;;10279335;28;20097;-85
2023/10/07 10:39:22;;;;;;;8.57;4.65;;;;;;;;;;10273599;28;20070;-86
2023/10/07 10:44:46;;;;;;;6.90;3.90;;;;;;;;;;10277448;28;20042;-87
2023/10/07 10:49:54;;;;;;;4.93;2.72;;;;;;;;;;10277627;28;20067;-86
2023/10/07 10:55:00;;;;;;;5.82;2.85;;;;;;;;;;10277065;28;20043;-87
2023/10/07 11:00:19;;;;;;;3.35;2.10;;;;;;;;;;10276613;28;20087;-86
2023/10/07 11:05:22;;;;;;;5.05;2.50;;;;;;;;;;10286481;28;20087;-85
2023/10/07 11:10:26;;;;;;;3.72;2.22;;;;;;;;;;10277812;28;20450;-88
2023/10/07 11:15:32;;;;;;;6.72;3.42;;;;;;;;;;10282831;28;20513;-89
2023/10/07 11:20:37;;;;;;;5.22;2.80;;;;;;;;;;10286417;28;20050;-88
2023/10/07 11:25:42;;;;;;;4.15;2.90;;;;;;;;;;10282390;28;20046;-87
2023/10/07 11:30:48;;;;;;;5.53;3.03;;;;;;;;;;10276365;28;20053;-88
2023/10/07 11:35:59;;;;;;;4.88;3.00;;;;;;;;;;10275719;28;20042;-87
2023/10/07 11:41:06;;;;;;;6.95;3.17;;;;;;;;;;10274669;28;20433;-85
2023/10/07 11:46:13;;;;;;;6.75;2.63;;;;;;;;;;10291639;28;20061;-86
2023/10/07 11:51:17;;;;;;;5.18;2.70;;;;;;;;;;10276174;28;20043;-87
2023/10/07 11:56:21;;;;;;;6.03;2.97;;;;;;;;;;10275331;28;20433;-86
2023/10/07 12:01:27;;;;;;;4.10;2.35;;;;;;;;;;10274167;28;20050;-86
2023/10/07 12:06:32;;;;;;;4.50;2.65;;;;;;;;;;10276768;28;20426;-86
2023/10/07 12:11:35;;;;;;;5.33;3.17;;;;;;;;;;10275120;28;20050;-85
2023/10/07 12:16:43;;;;;;;7.00;4.32;;;;;;;;;;10273801;28;20070;-86
2023/10/07 12:21:49;;;;;;;9.90;6.18;;;;;;;;;;10274952;28;20498;-87
2023/10/07 12:26:52;;;;;;;6.23;4.00;;;;;;;;;;10279317;28;20058;-86
2023/10/07 12:31:58;;;;;;;4.75;2.97;;;;;;;;;;10273340;28;20094;-86
2023/10/07 12:37:01;;;;;;;4.43;2.55;;;;;;;;;;10278367;28;20093;-86
2023/10/07 12:42:06;;;;;;;3.67;2.50;;;;;;;;;;10278129;28;20113;-86
2023/10/07 12:47:11;;;;;;;8.15;2.97;;;;;;;;;;10273227;28;20047;-86
2023/10/07 12:52:16;;;;;;;5.45;2.80;;;;;;;;;;10291993;28;20104;-86
2023/10/07 12:57:19;;;;;;;5.47;3.17;;;;;;;;;;10283849;28;20082;-86
2023/10/07 13:02:28;;;;;;;4.20;2.60;;;;;;;;;;10298125;28;20050;-86
2023/10/07 13:07:31;;;;;;;5.63;2.78;;;;;;;;;;10281836;28;20054;-85
2023/10/07 13:12:35;;;;;;;4.55;2.65;;;;;;;;;;10284435;28;20074;-85
2023/10/07 13:17:39;;;;;;;6.72;2.97;;;;;;;;;;10279307;28;20106;-86
2023/10/07 13:22:43;;;;;;;7.35;2.53;;;;;;;;;;10279950;28;20085;-87
2023/10/07 13:27:47;;;;;;;7.90;2.85;;;;;;;;;;10285246;28;20062;-86
2023/10/07 13:32:54;;;;;;;5.43;3.03;;;;;;;;;;10279311;28;20047;-85
2023/10/07 13:37:57;;;;;;;7.57;3.00;;;;;;;;;;10282466;28;20131;-86
2023/10/07 13:43:00;;;;;;;3.63;2.20;;;;;;;;;;10331886;23;20113;-77
2023/10/07 13:48:07;;;;;;;5.63;2.80;;;;;;;;;;10366300;28;20115;-77
2023/10/07 13:53:14;;;;;;;4.28;2.20;;;;;;;;;;10364873;28;20057;-77
2023/10/07 13:58:17;;;;;;;3.15;2.15;;;;;;;;;;10365365;28;20050;-77
2023/10/07 14:03:26;;;;;;;6.13;2.55;;;;;;;;;;10360687;28;20080;-77
2023/10/07 14:08:35;;;;;;;4.95;2.15;;;;;;;;;;10351777;28;20050;-77
2023/10/07 14:13:40;;;;;;;6.30;3.22;;;;;;;;;;10343729;28;20046;-77
2023/10/07 14:18:45;;;;;;;12.32;5.95;;;;;;;;;;10344867;28;20062;-77
2023/10/07 14:23:49;;;;;;;9.27;5.17;;;;;;;;;;10350583;28;20053;-76
2023/10/07 14:28:52;;;;;;;5.65;3.47;;;;;;;;;;10361851;28;20421;-77
2023/10/07 14:33:57;;;;;;;6.47;3.50;;;;;;;;;;10359288;28;20084;-77
2023/10/07 14:39:02;;;;;;;3.58;2.47;;;;;;;;;;10363629;28;20043;-77
2023/10/07 14:44:06;;;;;;;4.20;2.47;;;;;;;;;;10350327;28;20057;-76
2023/10/07 14:49:12;;;;;;;4.45;3.00;;;;;;;;;;10351299;28;20042;-76
2023/10/07 14:54:17;;;;;;;3.40;2.40;;;;;;;;;;10377714;28;20090;-78
2023/10/07 14:59:21;;;;;;;;;;;;;;;;;;10359777;28;20116;-77
2023/10/07 15:04:27;;;;;;;4.00;2.55;;;;;;;;;;10361175;28;20470;-77
2023/10/07 15:09:30;;;;;;;;;;;;;;;;;;10357299;28;20045;-77
2023/10/07 15:14:33;;;;;;;4.07;2.53;;;;;;;;;;10316274;28;20453;-77
2023/10/07 15:19:38;;;;;;;6.53;2.65;;;;;;;;;;10359475;28;20093;-76
2023/10/07 15:24:42;;;;;;;4.70;2.53;;;;;;;;;;10362688;28;20487;-77
2023/10/07 15:29:48;;;;;;;5.07;2.80;;;;;;;;;;10358359;28;20049;-77
2023/10/07 15:34:52;;;;;;;5.13;2.40;;;;;;;;;;10358857;28;20043;-77
2023/10/07 15:39:56;;;;;;;5.93;2.72;;;;;;;;;;10355078;28;20125;-77
2023/10/07 15:45:02;;;;;;;4.03;2.63;;;;;;;;;;10325319;28;20041;-77
2023/10/07 15:50:08;;;;;;;5.88;3.00;;;;;;;;;;10359957;28;20054;-77
2023/10/07 15:55:11;;;;;;;4.43;2.58;;;;;;;;;;10354944;28;20499;-77
2023/10/07 16:00:15;;;;;;;6.50;2.70;;;;;;;;;;10355471;28;20078;-77
2023/10/07 16:05:19;;;;;;;4.82;1.88;;;;;;;;;;10355678;28;20624;-77
2023/10/07 16:10:23;;;;;;;4.15;2.63;;;;;;;;;;10350639;28;20567;-77
2023/10/07 16:15:26;;;;;;;5.15;1.95;;;;;;;;;;10361500;28;20056;-77
2023/10/07 16:20:31;;;;;;;2.70;1.77;;;;;;;;;;10347447;28;20046;-77
2023/10/07 16:25:34;;;;;;;3.67;1.60;;;;;;;;;;10360580;28;20042;-78
2023/10/07 16:30:38;;;;;;;3.17;1.75;;;;;;;;;;10362555;28;20533;-77
2023/10/07 16:35:43;;;;;;;5.40;3.13;;;;;;;;;;10351771;28;20053;-78
2023/10/07 16:40:46;;;;;;;2.88;1.77;;;;;;;;;;10359713;28;20462;-78
2023/10/07 16:45:49;;;;;;;2.88;1.77;;;;;;;;;;10349006;28;20125;-78
2023/10/07 16:50:58;;;;;;;1.80;1.25;;;;;;;;;;10365906;28;20081;-78
2023/10/07 16:56:03;;;;;;;2.80;1.50;;;;;;;;;;10364692;28;20739;-77
2023/10/07 17:01:08;;;;;;;4.07;1.50;;;;;;;;;;10360055;28;20080;-77
2023/10/07 17:06:12;;;;;;;4.68;1.70;;;;;;;;;;10353526;28;20050;-78
2023/10/07 17:11:17;;;;;;;2.10;1.33;;;;;;;;;;10349408;28;20529;-78
2023/10/07 17:16:21;;;;;;;2.20;1.10;;;;;;;;;;10363549;28;20116;-78
2023/10/07 17:21:26;;;;;;;3.38;1.33;;;;;;;;;;10354840;28;20074;-78
2023/10/07 17:26:30;;;;;;;2.78;1.52;;;;;;;;;;10351072;28;20058;-77
2023/10/07 17:31:33;;;;;;;4.18;1.48;;;;;;;;;;10366296;28;20066;-78
2023/10/07 17:36:38;;;;;;;2.00;1.50;;;;;;;;;;10314118;28;20048;-78
2023/10/07 17:41:42;;;;;;;2.33;1.42;;;;;;;;;;10362027;28;20745;-78
2023/10/07 17:46:46;;;;;;;3.38;1.58;;;;;;;;;;10362700;28;20077;-78
2023/10/07 17:51:50;;;;;;;2.03;1.33;;;;;;;;;;10339293;28;20080;-77
2023/10/07 17:56:54;;;;;;;3.55;2.25;;;;;;;;;;10364176;28;20052;-78
2023/10/07 18:01:57;;;;;;;5.65;2.67;;;;;;;;;;10356517;28;20061;-77
2023/10/07 18:07:03;;;;;;;3.50;2.30;;;;;;;;;;10345591;28;20118;-78
2023/10/07 18:12:07;;;;;;;;;;;;;;;;;;10356772;28;20054;-77
2023/10/07 18:17:10;;;;;;;4.85;2.95;;;;;;;;;;10363483;28;20134;-77
2023/10/07 18:22:15;;;;;;;5.00;2.30;;;;;;;;;;10361532;28;20057;-78
2023/10/07 18:27:18;;;;;;;4.47;2.60;;;;;;;;;;10367500;28;20434;-77
2023/10/07 18:32:23;;;;;;;5.20;2.90;;;;;;;;;;10360399;28;20157;-78
2023/10/07 18:37:27;;;;;;;3.22;2.30;;;;;;;;;;10372760;28;20052;-77
2023/10/07 18:42:32;;;;;;;6.43;3.37;;;;;;;;;;10361651;28;20143;-77
2023/10/07 18:47:36;;;;;;;3.30;2.30;;;;;;;;;;10341510;28;20081;-77
2023/10/07 18:52:40;;;;;;;4.65;2.40;;;;;;;;;;10348451;28;20081;-77
2023/10/07 18:57:44;;;;;;;4.45;2.00;;;;;;;;;;10352343;28;20492;-77
2023/10/07 19:02:47;;;;;;;4.55;2.72;;;;;;;;;;10349569;28;20041;-77
2023/10/07 19:07:55;;;;;;;3.30;1.98;;;;;;;;;;10345226;28;20041;-77
2023/10/07 19:12:59;;;;;;;3.00;1.75;;;;;;;;;;10336090;28;20056;-77
2023/10/07 19:18:02;;;;;;;3.08;1.77;;;;;;;;;;10356191;28;20491;-77
2023/10/07 19:23:06;;;;;;;2.28;1.40;;;;;;;;;;10362660;28;20066;-77
2023/10/07 19:28:10;;;;;;;2.45;1.60;;;;;;;;;;10354985;28;20069;-77
2023/10/07 19:33:13;;;;;;;2.92;1.50;;;;;;;;;;10342138;28;20058;-78
2023/10/07 19:38:18;;;;;;;3.25;1.65;;;;;;;;;;10352195;28;20459;-77
2023/10/07 19:43:52;;;;;;;3.65;1.80;;;;;;;;;;10418864;23;20457;-77
2023/10/07 19:49:01;;;;;;;;;;;;;;;;;;10320643;28;20134;-78
2023/10/07 19:54:15;;;;;;;2.92;1.65;;;;;;;;;;10330413;28;20371;-78
2023/10/07 19:59:38;;;;;;;4.57;2.03;;;;;;;;;;10295209;28;20108;-78
2023/10/07 20:04:48;;;;;;;3.30;2.20;;;;;;;;;;10303839;28;20045;-78
2023/10/07 20:10:00;;;;;;;4.47;2.80;;;;;;;;;;10302166;28;20047;-78
2023/10/07 20:15:13;;;;;;;2.95;2.08;;;;;;;;;;10311785;28;20046;-78
2023/10/07 20:20:19;;;;;;;4.57;2.40;;;;;;;;;;10291440;28;20093;-78
2023/10/07 20:25:39;;;;;;;5.10;2.80;;;;;;;;;;10289816;28;20070;-78
2023/10/07 20:30:48;;;;;;;6.05;2.25;;;;;;;;;;10292361;28;20141;-78
2023/10/07 20:35:58;;;;;;;4.20;2.33;;;;;;;;;;10289462;28;20058;-78
2023/10/07 20:41:06;;;;;;;3.53;1.95;;;;;;;;;;10293639;28;20046;-78
2023/10/07 20:46:09;;;;;;;3.80;2.28;;;;;;;;;;10306361;28;20110;-78
2023/10/07 20:51:14;;;;;;;2.92;1.83;;;;;;;;;;10281528;28;20109;-78
2023/10/07 20:56:27;;;;;;;3.47;1.70;;;;;;;;;;10309727;28;20046;-78
2023/10/07 21:01:34;;;;;;;4.18;1.83;;;;;;;;;;10314670;28;20174;-78
2023/10/07 21:06:54;;;;;;;3.45;2.25;;;;;;;;;;10291772;28;20047;-78
2023/10/07 21:12:05;;;;;;;4.40;2.13;;;;;;;;;;10298911;28;20046;-78
2023/10/07 21:29:35;;;;;;;3.00;1.73;;;;;;;;;;10307115;28;20418;-77
2023/10/07 21:34:57;;;;;;;4.15;1.80;;;;;;;;;;10298136;28;20050;-78
2023/10/07 21:40:25;;;;;;;2.78;1.90;;;;;;;;;;10331953;28;20046;-78
2023/10/07 21:46:23;;;;;;;2.97;1.98;;;;;;;;;;10319852;28;20061;-79
2023/10/07 21:51:40;;;;;;;5.13;2.35;;;;;;;;;;10304681;28;20415;-78
2023/10/07 22:03:00;;;;;;;6.22;1.50;;;;;;;;;;10289050;28;20042;-78
2023/10/07 22:08:30;;;;;;;2.90;1.70;;;;;;;;;;10294249;28;20043;-78
2023/10/07 22:14:06;;;;;;;;;;;;;;;;;;;;;
2023/10/07 22:25:28;;;;;;;;;;;;;;;;;;;;;
2023/10/07 22:30:36;;;;;;;2.88;1.73;;;;;;;;;;10275545;28;20111;-78
2023/10/07 22:36:11;;;;;;;3.03;1.75;;;;;;;;;;10298324;28;20046;-78
2023/10/07 23:03:38;;;;;;;;;;;;;;;;;;;;;
2023/10/07 23:09:36;;;;;;;3.53;1.90;;;;;;;;;;12796557;23;20027;-77
2023/10/07 23:15:20;;;;;;;3.03;1.80;;;;;;;;;;12740560;23;20079;-77
2023/10/07 23:21:53;;;;;;;;;;;;;;;;;;;;;
2023/10/07 23:58:42;;;;;;;6.65;3.00;;;;;;;;;;12589152;23;20423;-77
